sensor_id;sensor_type;location;lat;lon;timestamp;temperature;humidity
73643;DHT22;61938;48.652;9.292;2022-12-18T00:00:56;-11.00;99.90
73643;DHT22;61938;48.652;9.292;2022-12-18T00:03:22;-11.00;99.90
73643;DHT22;61938;48.652;9.292;2022-12-18T00:05:51;-11.10;99.90
73643;DHT22;61938;48.652;9.292;2022-12-18T00:08:17;-11.10;99.90
73643;DHT22;61938;48.652;9.292;2022-12-18T00:10:43;-11.20;99.90
73643;DHT22;61938;48.652;9.292;2022-12-18T00:13:09;-11.20;99.90
73643;DHT22;61938;48.652;9.292;2022-12-18T00:15:35;-11.20;99.90
73643;DHT22;61938;48.652;9.292;2022-12-18T00:18:01;-11.30;99.90
73643;DHT22;61938;48.652;9.292;2022-12-18T00:20:27;-11.30;99.90
73643;DHT22;61938;48.652;9.292;2022-12-18T00:22:53;-11.30;99.90
73643;DHT22;61938;48.652;9.292;2022-12-18T00:25:19;-11.30;99.90
73643;DHT22;61938;48.652;9.292;2022-12-18T00:27:44;-11.40;99.90
73643;DHT22;61938;48.652;9.292;2022-12-18T00:30:10;-11.40;99.90
73643;DHT22;61938;48.652;9.292;2022-12-18T00:32:36;-11.40;99.90
73643;DHT22;61938;48.652;9.292;2022-12-18T00:35:02;-11.40;99.90
73643;DHT22;61938;48.652;9.292;2022-12-18T00:37:28;-11.40;99.90
73643;DHT22;61938;48.652;9.292;2022-12-18T00:39:54;-11.40;99.90
73643;DHT22;61938;48.652;9.292;2022-12-18T00:42:19;-11.40;99.90
73643;DHT22;61938;48.652;9.292;2022-12-18T00:45:04;-11.40;99.90
73643;DHT22;61938;48.652;9.292;2022-12-18T00:47:29;-11.30;99.90
73643;DHT22;61938;48.652;9.292;2022-12-18T00:49:55;-11.20;99.90
73643;DHT22;61938;48.652;9.292;2022-12-18T00:52:20;-11.20;99.90
73643;DHT22;61938;48.652;9.292;2022-12-18T00:54:46;-11.20;99.90
73643;DHT22;61938;48.652;9.292;2022-12-18T00:57:11;-11.10;99.90
73643;DHT22;61938;48.652;9.292;2022-12-18T00:59:37;-11.10;99.90
73643;DHT22;61938;48.652;9.292;2022-12-18T01:02:02;-11.00;99.90
73643;DHT22;61938;48.652;9.292;2022-12-18T01:04:30;-11.00;99.90
73643;DHT22;61938;48.652;9.292;2022-12-18T01:06:56;-11.00;99.90
73643;DHT22;61938;48.652;9.292;2022-12-18T01:09:21;-11.00;99.90
73643;DHT22;61938;48.652;9.292;2022-12-18T01:11:47;-11.10;99.90
73643;DHT22;61938;48.652;9.292;2022-12-18T01:14:12;-11.10;99.90
73643;DHT22;61938;48.652;9.292;2022-12-18T01:16:38;-11.20;99.90
73643;DHT22;61938;48.652;9.292;2022-12-18T01:19:03;-11.20;99.90
73643;DHT22;61938;48.652;9.292;2022-12-18T01:21:29;-11.30;99.90
73643;DHT22;61938;48.652;9.292;2022-12-18T01:23:56;-11.40;99.90
73643;DHT22;61938;48.652;9.292;2022-12-18T01:26:22;-11.50;99.90
73643;DHT22;61938;48.652;9.292;2022-12-18T01:28:48;-11.50;99.90
73643;DHT22;61938;48.652;9.292;2022-12-18T01:31:21;-11.60;99.90
73643;DHT22;61938;48.652;9.292;2022-12-18T01:33:47;-11.60;99.90
73643;DHT22;61938;48.652;9.292;2022-12-18T01:36:24;-11.60;99.90
73643;DHT22;61938;48.652;9.292;2022-12-18T01:38:50;-11.70;99.90
73643;DHT22;61938;48.652;9.292;2022-12-18T01:41:18;-11.80;99.90
73643;DHT22;61938;48.652;9.292;2022-12-18T01:43:47;-11.70;99.90
73643;DHT22;61938;48.652;9.292;2022-12-18T01:46:14;-11.70;99.90
73643;DHT22;61938;48.652;9.292;2022-12-18T01:48:41;-11.80;99.90
73643;DHT22;61938;48.652;9.292;2022-12-18T01:51:10;-11.70;99.90
73643;DHT22;61938;48.652;9.292;2022-12-18T01:53:37;-11.80;99.90
73643;DHT22;61938;48.652;9.292;2022-12-18T01:56:04;-11.80;99.90
73643;DHT22;61938;48.652;9.292;2022-12-18T02:01:13;-11.80;99.90
73643;DHT22;61938;48.652;9.292;2022-12-18T02:03:42;-11.70;99.90
73643;DHT22;61938;48.652;9.292;2022-12-18T02:06:15;-11.70;99.90
73643;DHT22;61938;48.652;9.292;2022-12-18T02:09:07;-11.60;99.90
73643;DHT22;61938;48.652;9.292;2022-12-18T02:11:49;-11.60;99.90
73643;DHT22;61938;48.652;9.292;2022-12-18T02:14:44;-11.60;99.90
73643;DHT22;61938;48.652;9.292;2022-12-18T02:17:18;-11.60;99.90
73643;DHT22;61938;48.652;9.292;2022-12-18T02:28:01;-11.50;99.90
73643;DHT22;61938;48.652;9.292;2022-12-18T02:30:31;-11.50;99.90
73643;DHT22;61938;48.652;9.292;2022-12-18T02:33:00;-11.50;99.90
73643;DHT22;61938;48.652;9.292;2022-12-18T02:35:29;-11.60;99.90
73643;DHT22;61938;48.652;9.292;2022-12-18T02:37:55;-11.60;99.90
73643;DHT22;61938;48.652;9.292;2022-12-18T02:40:24;-11.60;99.90
73643;DHT22;61938;48.652;9.292;2022-12-18T02:42:51;-11.60;99.90
73643;DHT22;61938;48.652;9.292;2022-12-18T02:45:17;-11.70;99.90
73643;DHT22;61938;48.652;9.292;2022-12-18T02:47:45;-11.70;99.90
73643;DHT22;61938;48.652;9.292;2022-12-18T02:50:38;-11.70;99.90
73643;DHT22;61938;48.652;9.292;2022-12-18T02:53:24;-11.70;99.90
73643;DHT22;61938;48.652;9.292;2022-12-18T02:56:05;-11.70;99.90
73643;DHT22;61938;48.652;9.292;2022-12-18T02:59:06;-11.60;99.90
73643;DHT22;61938;48.652;9.292;2022-12-18T03:01:52;-11.70;99.90
73643;DHT22;61938;48.652;9.292;2022-12-18T03:04:41;-11.70;99.90
73643;DHT22;61938;48.652;9.292;2022-12-18T03:07:14;-11.80;99.90
73643;DHT22;61938;48.652;9.292;2022-12-18T03:09:43;-11.80;99.90
73643;DHT22;61938;48.652;9.292;2022-12-18T03:12:32;-11.70;99.90
73643;DHT22;61938;48.652;9.292;2022-12-18T03:15:08;-11.60;99.90
73643;DHT22;61938;48.652;9.292;2022-12-18T03:17:35;-11.60;99.90
73643;DHT22;61938;48.652;9.292;2022-12-18T03:20:07;-11.60;99.90
73643;DHT22;61938;48.652;9.292;2022-12-18T03:22:35;-11.70;99.90
73643;DHT22;61938;48.652;9.292;2022-12-18T03:25:06;-11.60;99.90
73643;DHT22;61938;48.652;9.292;2022-12-18T03:27:36;-11.60;99.90
73643;DHT22;61938;48.652;9.292;2022-12-18T03:30:08;-11.60;99.90
73643;DHT22;61938;48.652;9.292;2022-12-18T03:32:48;-11.70;99.90
73643;DHT22;61938;48.652;9.292;2022-12-18T03:35:21;-11.70;99.90
73643;DHT22;61938;48.652;9.292;2022-12-18T03:37:47;-11.70;99.90
73643;DHT22;61938;48.652;9.292;2022-12-18T03:40:12;-11.70;99.90
73643;DHT22;61938;48.652;9.292;2022-12-18T03:42:55;-11.70;99.90
73643;DHT22;61938;48.652;9.292;2022-12-18T03:45:27;-11.80;99.90
73643;DHT22;61938;48.652;9.292;2022-12-18T03:50:51;-11.80;99.90
73643;DHT22;61938;48.652;9.292;2022-12-18T03:54:09;-11.80;99.90
73643;DHT22;61938;48.652;9.292;2022-12-18T03:56:11;-11.90;99.90
73643;DHT22;61938;48.652;9.292;2022-12-18T03:58:37;-11.90;99.90
73643;DHT22;61938;48.652;9.292;2022-12-18T04:01:05;-12.00;99.90
73643;DHT22;61938;48.652;9.292;2022-12-18T04:03:33;-12.00;99.90
73643;DHT22;61938;48.652;9.292;2022-12-18T04:06:00;-12.00;99.90
73643;DHT22;61938;48.652;9.292;2022-12-18T04:08:27;-12.00;99.90
73643;DHT22;61938;48.652;9.292;2022-12-18T04:10:53;-12.00;99.90
73643;DHT22;61938;48.652;9.292;2022-12-18T04:13:23;-12.00;99.90
73643;DHT22;61938;48.652;9.292;2022-12-18T04:15:49;-12.00;99.90
73643;DHT22;61938;48.652;9.292;2022-12-18T04:18:14;-12.10;99.90
73643;DHT22;61938;48.652;9.292;2022-12-18T04:20:40;-12.10;99.90
73643;DHT22;61938;48.652;9.292;2022-12-18T04:23:05;-12.00;99.90
73643;DHT22;61938;48.652;9.292;2022-12-18T04:25:31;-12.00;99.90
73643;DHT22;61938;48.652;9.292;2022-12-18T04:27:56;-12.00;99.90
73643;DHT22;61938;48.652;9.292;2022-12-18T04:30:22;-12.00;99.90
73643;DHT22;61938;48.652;9.292;2022-12-18T04:32:47;-12.10;99.90
73643;DHT22;61938;48.652;9.292;2022-12-18T04:35:13;-12.10;99.90
73643;DHT22;61938;48.652;9.292;2022-12-18T04:37:38;-12.20;99.90
73643;DHT22;61938;48.652;9.292;2022-12-18T04:40:04;-12.20;99.90
73643;DHT22;61938;48.652;9.292;2022-12-18T04:42:30;-12.30;99.90
73643;DHT22;61938;48.652;9.292;2022-12-18T04:44:56;-12.40;99.90
73643;DHT22;61938;48.652;9.292;2022-12-18T04:47:21;-12.40;99.90
73643;DHT22;61938;48.652;9.292;2022-12-18T04:49:47;-12.40;99.90
73643;DHT22;61938;48.652;9.292;2022-12-18T04:52:12;-12.50;99.90
73643;DHT22;61938;48.652;9.292;2022-12-18T04:54:38;-12.50;99.90
73643;DHT22;61938;48.652;9.292;2022-12-18T04:57:03;-12.60;99.90
73643;DHT22;61938;48.652;9.292;2022-12-18T04:59:29;-12.50;99.90
73643;DHT22;61938;48.652;9.292;2022-12-18T05:01:54;-12.60;99.90
73643;DHT22;61938;48.652;9.292;2022-12-18T05:04:20;-12.60;99.90
73643;DHT22;61938;48.652;9.292;2022-12-18T05:06:45;-12.60;99.90
73643;DHT22;61938;48.652;9.292;2022-12-18T05:09:11;-12.60;99.90
73643;DHT22;61938;48.652;9.292;2022-12-18T05:11:37;-12.60;99.90
73643;DHT22;61938;48.652;9.292;2022-12-18T05:14:02;-12.60;99.90
73643;DHT22;61938;48.652;9.292;2022-12-18T05:16:28;-12.60;99.90
73643;DHT22;61938;48.652;9.292;2022-12-18T05:18:53;-12.70;99.90
73643;DHT22;61938;48.652;9.292;2022-12-18T05:21:19;-12.70;99.90
73643;DHT22;61938;48.652;9.292;2022-12-18T05:23:44;-12.60;99.90
73643;DHT22;61938;48.652;9.292;2022-12-18T05:26:15;-12.60;99.90
73643;DHT22;61938;48.652;9.292;2022-12-18T05:28:41;-12.50;99.90
73643;DHT22;61938;48.652;9.292;2022-12-18T05:31:06;-12.40;99.90
73643;DHT22;61938;48.652;9.292;2022-12-18T05:33:34;-12.30;99.90
73643;DHT22;61938;48.652;9.292;2022-12-18T05:36:01;-12.30;99.90
73643;DHT22;61938;48.652;9.292;2022-12-18T05:38:27;-12.40;99.90
73643;DHT22;61938;48.652;9.292;2022-12-18T05:40:54;-12.40;99.90
73643;DHT22;61938;48.652;9.292;2022-12-18T05:43:21;-12.40;99.90
73643;DHT22;61938;48.652;9.292;2022-12-18T05:45:48;-12.50;99.90
73643;DHT22;61938;48.652;9.292;2022-12-18T05:48:14;-12.50;99.90
73643;DHT22;61938;48.652;9.292;2022-12-18T05:50:41;-12.60;99.90
73643;DHT22;61938;48.652;9.292;2022-12-18T05:53:07;-12.60;99.90
73643;DHT22;61938;48.652;9.292;2022-12-18T05:55:34;-12.60;99.90
73643;DHT22;61938;48.652;9.292;2022-12-18T05:58:00;-12.60;99.90
73643;DHT22;61938;48.652;9.292;2022-12-18T06:00:26;-12.80;99.90
73643;DHT22;61938;48.652;9.292;2022-12-18T06:02:52;-12.80;99.90
73643;DHT22;61938;48.652;9.292;2022-12-18T06:05:18;-12.90;99.90
73643;DHT22;61938;48.652;9.292;2022-12-18T06:07:43;-12.90;99.90
73643;DHT22;61938;48.652;9.292;2022-12-18T06:10:09;-12.90;99.90
73643;DHT22;61938;48.652;9.292;2022-12-18T06:12:35;-13.00;99.90
73643;DHT22;61938;48.652;9.292;2022-12-18T06:15:00;-13.00;99.90
73643;DHT22;61938;48.652;9.292;2022-12-18T06:17:30;-13.00;99.90
73643;DHT22;61938;48.652;9.292;2022-12-18T06:19:56;-13.00;99.90
73643;DHT22;61938;48.652;9.292;2022-12-18T06:22:22;-13.00;99.90
73643;DHT22;61938;48.652;9.292;2022-12-18T06:24:47;-13.10;99.90
73643;DHT22;61938;48.652;9.292;2022-12-18T06:27:13;-13.10;99.90
73643;DHT22;61938;48.652;9.292;2022-12-18T06:29:38;-13.00;99.90
73643;DHT22;61938;48.652;9.292;2022-12-18T06:32:04;-12.90;99.90
73643;DHT22;61938;48.652;9.292;2022-12-18T06:34:30;-13.10;99.90
73643;DHT22;61938;48.652;9.292;2022-12-18T06:36:55;-13.10;99.90
73643;DHT22;61938;48.652;9.292;2022-12-18T06:39:21;-13.00;99.90
73643;DHT22;61938;48.652;9.292;2022-12-18T06:41:46;-13.10;99.90
73643;DHT22;61938;48.652;9.292;2022-12-18T06:44:12;-13.20;99.90
73643;DHT22;61938;48.652;9.292;2022-12-18T06:46:37;-13.00;99.90
73643;DHT22;61938;48.652;9.292;2022-12-18T06:49:03;-13.20;99.90
73643;DHT22;61938;48.652;9.292;2022-12-18T06:51:28;-13.20;99.90
73643;DHT22;61938;48.652;9.292;2022-12-18T06:53:54;-13.20;99.90
73643;DHT22;61938;48.652;9.292;2022-12-18T06:56:19;-13.20;99.90
73643;DHT22;61938;48.652;9.292;2022-12-18T06:58:45;-13.30;99.90
73643;DHT22;61938;48.652;9.292;2022-12-18T07:01:11;-13.30;99.90
73643;DHT22;61938;48.652;9.292;2022-12-18T07:03:38;-13.40;99.90
73643;DHT22;61938;48.652;9.292;2022-12-18T07:06:03;-13.40;99.90
73643;DHT22;61938;48.652;9.292;2022-12-18T07:08:30;-13.40;99.90
73643;DHT22;61938;48.652;9.292;2022-12-18T07:10:56;-13.40;99.90
73643;DHT22;61938;48.652;9.292;2022-12-18T07:13:22;-13.40;99.90
73643;DHT22;61938;48.652;9.292;2022-12-18T07:15:48;-13.30;99.90
73643;DHT22;61938;48.652;9.292;2022-12-18T07:18:13;-13.10;99.90
73643;DHT22;61938;48.652;9.292;2022-12-18T07:23:05;-13.40;99.90
73643;DHT22;61938;48.652;9.292;2022-12-18T07:25:37;-13.40;99.90
73643;DHT22;61938;48.652;9.292;2022-12-18T07:28:04;-13.40;99.90
73643;DHT22;61938;48.652;9.292;2022-12-18T07:30:29;-13.40;99.90
73643;DHT22;61938;48.652;9.292;2022-12-18T07:32:55;-13.40;99.90
73643;DHT22;61938;48.652;9.292;2022-12-18T07:35:21;-13.40;99.90
73643;DHT22;61938;48.652;9.292;2022-12-18T07:37:46;-13.40;99.90
73643;DHT22;61938;48.652;9.292;2022-12-18T07:40:12;-13.40;99.90
73643;DHT22;61938;48.652;9.292;2022-12-18T07:42:37;-13.40;99.90
73643;DHT22;61938;48.652;9.292;2022-12-18T07:45:04;-13.30;99.90
73643;DHT22;61938;48.652;9.292;2022-12-18T07:47:34;-13.30;99.90
73643;DHT22;61938;48.652;9.292;2022-12-18T07:50:01;-13.20;99.90
73643;DHT22;61938;48.652;9.292;2022-12-18T07:52:26;-13.10;99.90
73643;DHT22;61938;48.652;9.292;2022-12-18T07:54:52;-13.00;99.90
73643;DHT22;61938;48.652;9.292;2022-12-18T07:57:17;-12.70;99.90
73643;DHT22;61938;48.652;9.292;2022-12-18T07:59:43;-12.70;99.90
73643;DHT22;61938;48.652;9.292;2022-12-18T08:02:09;-12.60;99.90
73643;DHT22;61938;48.652;9.292;2022-12-18T08:04:34;-12.50;99.90
73643;DHT22;61938;48.652;9.292;2022-12-18T08:07:00;-12.40;99.90
73643;DHT22;61938;48.652;9.292;2022-12-18T08:09:25;-12.30;99.90
73643;DHT22;61938;48.652;9.292;2022-12-18T08:11:51;-12.20;99.90
73643;DHT22;61938;48.652;9.292;2022-12-18T08:14:16;-12.10;99.90
73643;DHT22;61938;48.652;9.292;2022-12-18T08:16:42;-12.00;99.90
73643;DHT22;61938;48.652;9.292;2022-12-18T08:19:07;-11.90;99.90
73643;DHT22;61938;48.652;9.292;2022-12-18T08:21:33;-11.70;99.90
73643;DHT22;61938;48.652;9.292;2022-12-18T08:24:00;-11.60;99.90
73643;DHT22;61938;48.652;9.292;2022-12-18T08:26:28;-11.50;99.90
73643;DHT22;61938;48.652;9.292;2022-12-18T08:28:55;-11.40;99.90
73643;DHT22;61938;48.652;9.292;2022-12-18T08:31:21;-11.40;99.90
73643;DHT22;61938;48.652;9.292;2022-12-18T08:33:51;-11.40;99.90
73643;DHT22;61938;48.652;9.292;2022-12-18T08:36:18;-11.30;99.90
73643;DHT22;61938;48.652;9.292;2022-12-18T08:38:44;-11.30;99.90
73643;DHT22;61938;48.652;9.292;2022-12-18T08:41:11;-11.20;99.90
73643;DHT22;61938;48.652;9.292;2022-12-18T08:43:37;-11.10;99.90
73643;DHT22;61938;48.652;9.292;2022-12-18T08:46:23;-11.00;99.90
73643;DHT22;61938;48.652;9.292;2022-12-18T08:48:51;-10.90;99.90
73643;DHT22;61938;48.652;9.292;2022-12-18T08:51:17;-10.90;99.90
73643;DHT22;61938;48.652;9.292;2022-12-18T08:53:43;-10.80;99.90
73643;DHT22;61938;48.652;9.292;2022-12-18T08:56:09;-10.80;99.90
73643;DHT22;61938;48.652;9.292;2022-12-18T08:58:35;-10.80;99.90
73643;DHT22;61938;48.652;9.292;2022-12-18T09:01:06;-10.80;99.90
73643;DHT22;61938;48.652;9.292;2022-12-18T09:03:32;-10.80;99.90
73643;DHT22;61938;48.652;9.292;2022-12-18T09:05:58;-10.80;99.90
73643;DHT22;61938;48.652;9.292;2022-12-18T09:08:25;-10.80;99.90
73643;DHT22;61938;48.652;9.292;2022-12-18T09:10:51;-10.70;99.90
73643;DHT22;61938;48.652;9.292;2022-12-18T09:13:17;-10.70;99.90
73643;DHT22;61938;48.652;9.292;2022-12-18T09:15:47;-10.60;99.90
73643;DHT22;61938;48.652;9.292;2022-12-18T09:18:15;-10.60;99.90
73643;DHT22;61938;48.652;9.292;2022-12-18T09:20:41;-10.50;99.90
73643;DHT22;61938;48.652;9.292;2022-12-18T09:23:07;-10.40;99.90
73643;DHT22;61938;48.652;9.292;2022-12-18T09:25:33;-10.30;99.90
73643;DHT22;61938;48.652;9.292;2022-12-18T09:28:05;-10.20;99.90
73643;DHT22;61938;48.652;9.292;2022-12-18T09:30:31;-10.10;99.90
73643;DHT22;61938;48.652;9.292;2022-12-18T09:32:58;-10.10;99.90
73643;DHT22;61938;48.652;9.292;2022-12-18T09:35:24;-10.00;99.90
73643;DHT22;61938;48.652;9.292;2022-12-18T09:37:50;-10.00;99.90
73643;DHT22;61938;48.652;9.292;2022-12-18T09:40:21;-9.90;99.90
73643;DHT22;61938;48.652;9.292;2022-12-18T09:42:55;-9.80;99.90
73643;DHT22;61938;48.652;9.292;2022-12-18T09:45:23;-9.70;99.90
73643;DHT22;61938;48.652;9.292;2022-12-18T09:47:50;-9.60;99.90
73643;DHT22;61938;48.652;9.292;2022-12-18T09:50:29;-9.40;99.90
73643;DHT22;61938;48.652;9.292;2022-12-18T09:52:57;-9.30;99.90
73643;DHT22;61938;48.652;9.292;2022-12-18T09:55:33;-9.20;99.90
73643;DHT22;61938;48.652;9.292;2022-12-18T09:58:25;-9.10;99.90
73643;DHT22;61938;48.652;9.292;2022-12-18T10:00:52;-9.00;99.90
73643;DHT22;61938;48.652;9.292;2022-12-18T10:03:18;-8.90;99.90
73643;DHT22;61938;48.652;9.292;2022-12-18T10:08:27;-8.80;99.90
73643;DHT22;61938;48.652;9.292;2022-12-18T10:11:03;-8.70;99.90
73643;DHT22;61938;48.652;9.292;2022-12-18T10:13:42;-8.60;99.90
73643;DHT22;61938;48.652;9.292;2022-12-18T10:16:35;-8.60;99.90
73643;DHT22;61938;48.652;9.292;2022-12-18T10:19:17;-8.60;99.90
73643;DHT22;61938;48.652;9.292;2022-12-18T10:21:52;-8.50;99.90
73643;DHT22;61938;48.652;9.292;2022-12-18T10:24:32;-8.40;99.90
73643;DHT22;61938;48.652;9.292;2022-12-18T10:27:16;-8.20;99.90
73643;DHT22;61938;48.652;9.292;2022-12-18T10:29:43;-8.10;99.90
73643;DHT22;61938;48.652;9.292;2022-12-18T10:32:15;-8.00;99.90
73643;DHT22;61938;48.652;9.292;2022-12-18T10:34:48;-7.80;99.90
73643;DHT22;61938;48.652;9.292;2022-12-18T10:37:19;-7.60;99.90
73643;DHT22;61938;48.652;9.292;2022-12-18T10:39:46;-7.30;99.90
73643;DHT22;61938;48.652;9.292;2022-12-18T10:42:19;-7.10;99.90
73643;DHT22;61938;48.652;9.292;2022-12-18T10:44:45;-6.80;99.90
73643;DHT22;61938;48.652;9.292;2022-12-18T10:47:15;-6.50;99.90
73643;DHT22;61938;48.652;9.292;2022-12-18T10:49:52;-6.40;99.90
73643;DHT22;61938;48.652;9.292;2022-12-18T10:52:21;-6.10;99.90
73643;DHT22;61938;48.652;9.292;2022-12-18T10:54:58;-5.90;99.90
73643;DHT22;61938;48.652;9.292;2022-12-18T10:57:36;-5.60;99.90
73643;DHT22;61938;48.652;9.292;2022-12-18T11:02:50;-5.00;99.90
73643;DHT22;61938;48.652;9.292;2022-12-18T11:05:29;-4.60;99.90
73643;DHT22;61938;48.652;9.292;2022-12-18T11:07:56;-4.30;99.90
73643;DHT22;61938;48.652;9.292;2022-12-18T11:10:39;-4.10;99.90
73643;DHT22;61938;48.652;9.292;2022-12-18T11:13:23;-3.90;99.90
73643;DHT22;61938;48.652;9.292;2022-12-18T11:15:50;-3.50;99.90
73643;DHT22;61938;48.652;9.292;2022-12-18T11:18:29;-3.40;99.90
73643;DHT22;61938;48.652;9.292;2022-12-18T11:20:57;-3.30;99.90
73643;DHT22;61938;48.652;9.292;2022-12-18T11:23:24;-3.00;99.90
73643;DHT22;61938;48.652;9.292;2022-12-18T11:25:55;-2.70;99.90
73643;DHT22;61938;48.652;9.292;2022-12-18T11:33:38;-1.90;99.90
73643;DHT22;61938;48.652;9.292;2022-12-18T11:36:08;-1.70;99.90
73643;DHT22;61938;48.652;9.292;2022-12-18T11:38:37;-1.30;99.90
73643;DHT22;61938;48.652;9.292;2022-12-18T11:41:50;-0.90;99.90
73643;DHT22;61938;48.652;9.292;2022-12-18T11:44:29;-0.60;99.90
73643;DHT22;61938;48.652;9.292;2022-12-18T11:47:03;-0.40;99.90
73643;DHT22;61938;48.652;9.292;2022-12-18T11:49:35;-0.60;99.90
73643;DHT22;61938;48.652;9.292;2022-12-18T11:52:09;-0.80;99.90
73643;DHT22;61938;48.652;9.292;2022-12-18T11:54:35;-0.70;99.90
73643;DHT22;61938;48.652;9.292;2022-12-18T11:57:19;-0.50;99.90
73643;DHT22;61938;48.652;9.292;2022-12-18T12:05:31;-0.20;99.90
73643;DHT22;61938;48.652;9.292;2022-12-18T12:08:42;-0.20;99.90
73643;DHT22;61938;48.652;9.292;2022-12-18T12:17:22;-0.30;99.90
73643;DHT22;61938;48.652;9.292;2022-12-18T12:20:07;-0.60;99.90
73643;DHT22;61938;48.652;9.292;2022-12-18T12:22:39;-0.90;99.90
73643;DHT22;61938;48.652;9.292;2022-12-18T12:25:30;-1.10;99.90
73643;DHT22;61938;48.652;9.292;2022-12-18T12:28:41;-1.10;99.90
73643;DHT22;61938;48.652;9.292;2022-12-18T12:34:01;-1.00;99.90
73643;DHT22;61938;48.652;9.292;2022-12-18T12:39:36;-0.90;99.90
73643;DHT22;61938;48.652;9.292;2022-12-18T12:42:06;-1.00;99.90
73643;DHT22;61938;48.652;9.292;2022-12-18T12:45:06;-1.00;99.90
73643;DHT22;61938;48.652;9.292;2022-12-18T12:47:40;-1.20;99.90
73643;DHT22;61938;48.652;9.292;2022-12-18T12:50:15;-1.30;99.90
73643;DHT22;61938;48.652;9.292;2022-12-18T12:52:47;-1.30;99.90
73643;DHT22;61938;48.652;9.292;2022-12-18T12:55:19;-1.30;99.90
73643;DHT22;61938;48.652;9.292;2022-12-18T12:57:57;-1.30;99.90
73643;DHT22;61938;48.652;9.292;2022-12-18T13:00:25;-1.20;99.90
73643;DHT22;61938;48.652;9.292;2022-12-18T13:03:18;-1.10;99.90
73643;DHT22;61938;48.652;9.292;2022-12-18T13:05:58;-1.10;99.90
73643;DHT22;61938;48.652;9.292;2022-12-18T13:08:28;-1.10;99.90
73643;DHT22;61938;48.652;9.292;2022-12-18T13:10:55;-1.10;99.90
73643;DHT22;61938;48.652;9.292;2022-12-18T13:13:54;-0.90;99.90
73643;DHT22;61938;48.652;9.292;2022-12-18T13:16:25;-0.90;99.90
73643;DHT22;61938;48.652;9.292;2022-12-18T13:18:55;-1.00;99.90
73643;DHT22;61938;48.652;9.292;2022-12-18T13:21:27;-1.00;99.90
73643;DHT22;61938;48.652;9.292;2022-12-18T13:23:53;-0.90;99.90
73643;DHT22;61938;48.652;9.292;2022-12-18T13:31:11;-1.00;99.90
73643;DHT22;61938;48.652;9.292;2022-12-18T13:33:46;-1.20;99.90
73643;DHT22;61938;48.652;9.292;2022-12-18T13:36:28;-1.30;99.90
73643;DHT22;61938;48.652;9.292;2022-12-18T13:39:32;-1.40;99.90
73643;DHT22;61938;48.652;9.292;2022-12-18T13:44:33;-1.60;99.90
73643;DHT22;61938;48.652;9.292;2022-12-18T13:47:03;-1.70;99.90
73643;DHT22;61938;48.652;9.292;2022-12-18T13:49:37;-1.50;99.90
73643;DHT22;61938;48.652;9.292;2022-12-18T13:52:27;-1.50;99.90
73643;DHT22;61938;48.652;9.292;2022-12-18T13:54:55;-1.60;99.90
73643;DHT22;61938;48.652;9.292;2022-12-18T13:57:38;-1.80;99.90
73643;DHT22;61938;48.652;9.292;2022-12-18T14:02:51;-2.00;99.90
73643;DHT22;61938;48.652;9.292;2022-12-18T14:05:36;-2.10;99.90
73643;DHT22;61938;48.652;9.292;2022-12-18T14:08:08;-2.10;99.90
73643;DHT22;61938;48.652;9.292;2022-12-18T14:10:40;-2.20;99.90
73643;DHT22;61938;48.652;9.292;2022-12-18T14:13:08;-2.20;99.90
73643;DHT22;61938;48.652;9.292;2022-12-18T14:15:43;-2.20;99.90
73643;DHT22;61938;48.652;9.292;2022-12-18T14:20:44;-2.30;99.90
73643;DHT22;61938;48.652;9.292;2022-12-18T14:26:20;-2.50;99.90
73643;DHT22;61938;48.652;9.292;2022-12-18T14:28:46;-2.60;99.90
73643;DHT22;61938;48.652;9.292;2022-12-18T14:31:27;-2.70;99.90
73643;DHT22;61938;48.652;9.292;2022-12-18T14:33:53;-2.90;99.90
73643;DHT22;61938;48.652;9.292;2022-12-18T14:36:23;-2.90;99.90
73643;DHT22;61938;48.652;9.292;2022-12-18T14:38:51;-2.90;99.90
73643;DHT22;61938;48.652;9.292;2022-12-18T14:41:19;-3.00;99.90
73643;DHT22;61938;48.652;9.292;2022-12-18T14:43:48;-3.00;99.90
73643;DHT22;61938;48.652;9.292;2022-12-18T14:46:34;-3.00;99.90
73643;DHT22;61938;48.652;9.292;2022-12-18T14:51:53;-3.10;99.90
73643;DHT22;61938;48.652;9.292;2022-12-18T14:54:20;-3.10;99.90
73643;DHT22;61938;48.652;9.292;2022-12-18T14:57:01;-3.10;99.90
73643;DHT22;61938;48.652;9.292;2022-12-18T14:59:28;-3.10;99.90
73643;DHT22;61938;48.652;9.292;2022-12-18T15:02:18;-3.10;99.90
73643;DHT22;61938;48.652;9.292;2022-12-18T15:04:45;-3.10;99.90
73643;DHT22;61938;48.652;9.292;2022-12-18T15:09:42;-3.20;99.90
73643;DHT22;61938;48.652;9.292;2022-12-18T15:12:34;-3.30;99.90
73643;DHT22;61938;48.652;9.292;2022-12-18T15:15:00;-3.40;99.90
73643;DHT22;61938;48.652;9.292;2022-12-18T15:17:26;-3.50;99.90
73643;DHT22;61938;48.652;9.292;2022-12-18T15:19:58;-3.60;99.90
73643;DHT22;61938;48.652;9.292;2022-12-18T15:22:29;-3.60;99.90
73643;DHT22;61938;48.652;9.292;2022-12-18T15:24:56;-3.60;99.90
73643;DHT22;61938;48.652;9.292;2022-12-18T15:27:31;-3.70;99.90
73643;DHT22;61938;48.652;9.292;2022-12-18T15:32:39;-3.90;99.90
73643;DHT22;61938;48.652;9.292;2022-12-18T15:37:37;-4.10;99.90
73643;DHT22;61938;48.652;9.292;2022-12-18T15:40:03;-4.10;99.90
73643;DHT22;61938;48.652;9.292;2022-12-18T15:42:29;-4.20;99.90
73643;DHT22;61938;48.652;9.292;2022-12-18T15:45:14;-4.30;99.90
73643;DHT22;61938;48.652;9.292;2022-12-18T15:47:39;-4.30;99.90
73643;DHT22;61938;48.652;9.292;2022-12-18T15:50:07;-4.40;99.90
73643;DHT22;61938;48.652;9.292;2022-12-18T15:52:42;-4.50;99.90
73643;DHT22;61938;48.652;9.292;2022-12-18T15:55:15;-4.60;99.90
73643;DHT22;61938;48.652;9.292;2022-12-18T15:58:00;-4.60;99.90
73643;DHT22;61938;48.652;9.292;2022-12-18T16:00:26;-4.60;99.90
73643;DHT22;61938;48.652;9.292;2022-12-18T16:02:52;-4.80;99.90
73643;DHT22;61938;48.652;9.292;2022-12-18T16:05:24;-4.80;99.90
73643;DHT22;61938;48.652;9.292;2022-12-18T16:07:49;-4.80;99.90
73643;DHT22;61938;48.652;9.292;2022-12-18T16:10:15;-4.90;99.90
73643;DHT22;61938;48.652;9.292;2022-12-18T16:12:41;-5.00;99.90
73643;DHT22;61938;48.652;9.292;2022-12-18T16:15:08;-5.10;99.90
73643;DHT22;61938;48.652;9.292;2022-12-18T16:17:35;-5.10;99.90
73643;DHT22;61938;48.652;9.292;2022-12-18T16:20:00;-5.10;99.90
73643;DHT22;61938;48.652;9.292;2022-12-18T16:22:28;-5.10;99.90
73643;DHT22;61938;48.652;9.292;2022-12-18T16:24:55;-5.20;99.90
73643;DHT22;61938;48.652;9.292;2022-12-18T16:27:21;-5.30;99.90
73643;DHT22;61938;48.652;9.292;2022-12-18T16:29:48;-5.30;99.90
73643;DHT22;61938;48.652;9.292;2022-12-18T16:32:16;-5.40;99.90
73643;DHT22;61938;48.652;9.292;2022-12-18T16:34:42;-5.30;99.90
73643;DHT22;61938;48.652;9.292;2022-12-18T16:37:10;-5.30;99.90
73643;DHT22;61938;48.652;9.292;2022-12-18T16:39:36;-5.30;99.90
73643;DHT22;61938;48.652;9.292;2022-12-18T16:42:04;-5.30;99.90
73643;DHT22;61938;48.652;9.292;2022-12-18T16:44:30;-5.40;99.90
73643;DHT22;61938;48.652;9.292;2022-12-18T16:46:55;-5.40;99.90
73643;DHT22;61938;48.652;9.292;2022-12-18T16:49:27;-5.30;99.90
73643;DHT22;61938;48.652;9.292;2022-12-18T16:51:53;-5.30;99.90